createdAt,value
2022-10-31T00:00:50.669Z,12.63
2022-10-31T00:03:20.145Z,10.93
2022-10-31T00:05:51.525Z,12.73
2022-10-31T00:08:19.933Z,11.47
2022-10-31T00:10:47.982Z,11.97
2022-10-31T00:13:18.328Z,11.13
2022-10-31T00:15:47.628Z,8.50
2022-10-31T00:18:15.754Z,11.37
2022-10-31T00:20:43.893Z,8.77
2022-10-31T00:23:12.991Z,8.53
2022-10-31T00:25:41.964Z,8.47
2022-10-31T00:28:13.466Z,9.83
2022-10-31T00:30:42.873Z,11.30
2022-10-31T00:33:10.854Z,8.23
2022-10-31T00:35:38.782Z,9.10
2022-10-31T00:38:06.737Z,13.90
2022-10-31T00:40:34.769Z,14.00
2022-10-31T00:43:03.167Z,13.57
2022-10-31T00:45:31.418Z,11.70
2022-10-31T00:48:01.374Z,9.63
2022-10-31T00:50:29.936Z,10.97
2022-10-31T00:52:58.917Z,9.47
2022-10-31T00:55:26.987Z,12.10
2022-10-31T00:57:55.020Z,12.80
2022-10-31T01:00:23.238Z,10.37
2022-10-31T01:02:51.225Z,12.03
2022-10-31T01:05:21.008Z,10.27
2022-10-31T01:07:48.924Z,12.23
2022-10-31T01:10:17.151Z,9.83
2022-10-31T01:12:47.418Z,9.00
2022-10-31T01:15:18.861Z,7.00
2022-10-31T01:17:46.926Z,8.27
2022-10-31T01:20:16.780Z,15.37
2022-10-31T01:22:46.220Z,6.80
2022-10-31T01:25:14.238Z,8.93
2022-10-31T01:27:42.988Z,11.60
2022-10-31T01:30:13.390Z,7.80
2022-10-31T01:32:41.317Z,9.83
2022-10-31T01:35:09.317Z,10.50
2022-10-31T01:37:37.277Z,10.23
2022-10-31T01:40:08.092Z,12.23
2022-10-31T01:42:36.005Z,7.37
2022-10-31T01:45:07.064Z,10.73
2022-10-31T01:47:41.320Z,9.70
2022-10-31T01:50:16.308Z,6.47
2022-10-31T01:52:46.669Z,15.17
2022-10-31T01:55:20.361Z,7.97
2022-10-31T01:57:52.873Z,12.47
2022-10-31T02:00:22.986Z,8.03
2022-10-31T02:02:52.116Z,6.83
2022-10-31T02:05:23.644Z,5.03
2022-10-31T02:07:57.663Z,6.83
2022-10-31T02:10:33.702Z,9.20
2022-10-31T02:13:04.741Z,9.17
2022-10-31T02:15:33.965Z,10.57
2022-10-31T02:18:02.882Z,10.73
2022-10-31T02:20:38.410Z,7.63
2022-10-31T02:23:35.318Z,9.87
2022-10-31T02:26:29.316Z,8.50
2022-10-31T02:29:14.408Z,8.27
2022-10-31T02:31:51.078Z,14.83
2022-10-31T02:37:21.661Z,8.30
2022-10-31T02:39:58.751Z,13.17
2022-10-31T02:42:48.752Z,5.43
2022-10-31T02:45:28.846Z,11.07
2022-10-31T02:48:03.558Z,10.97
2022-10-31T02:50:34.811Z,9.93
2022-10-31T02:53:05.335Z,8.83
2022-10-31T02:55:58.614Z,8.93
2022-10-31T02:58:30.595Z,12.20
2022-10-31T03:01:13.181Z,8.10
2022-10-31T03:03:56.666Z,10.90
2022-10-31T03:06:32.388Z,8.27
2022-10-31T03:09:09.165Z,8.07
2022-10-31T03:11:46.440Z,10.70
2022-10-31T03:14:22.175Z,8.83
2022-10-31T03:17:00.104Z,19.73
2022-10-31T03:19:33.365Z,7.03
2022-10-31T03:22:04.606Z,9.97
2022-10-31T03:24:39.276Z,13.17
2022-10-31T03:27:11.789Z,12.33
2022-10-31T03:29:42.257Z,12.27
2022-10-31T03:32:14.019Z,7.03
2022-10-31T03:34:46.042Z,5.73
2022-10-31T03:37:19.876Z,17.47
2022-10-31T03:39:50.721Z,12.27
2022-10-31T03:42:26.186Z,7.40
2022-10-31T03:45:03.504Z,10.33
2022-10-31T03:47:31.714Z,7.07
2022-10-31T03:50:02.827Z,9.70
2022-10-31T03:52:37.447Z,10.40
2022-10-31T03:55:10.007Z,14.07
2022-10-31T03:57:43.454Z,10.60
2022-10-31T04:00:14.677Z,9.07
2022-10-31T04:02:55.737Z,12.07
2022-10-31T04:05:26.007Z,10.93
2022-10-31T04:07:59.780Z,7.80
2022-10-31T04:10:32.893Z,9.03
2022-10-31T04:13:07.100Z,7.30
2022-10-31T04:15:47.978Z,7.03
2022-10-31T04:18:18.233Z,10.40
2022-10-31T04:20:50.947Z,8.60
2022-10-31T04:23:22.537Z,7.17
2022-10-31T04:25:51.342Z,8.47
2022-10-31T04:30:53.659Z,14.77
2022-10-31T04:33:21.839Z,15.40
2022-10-31T04:35:51.293Z,14.23
2022-10-31T04:38:20.111Z,12.53
2022-10-31T04:40:49.353Z,7.00
2022-10-31T04:43:43.072Z,7.47
2022-10-31T04:46:11.202Z,5.67
2022-10-31T04:48:39.478Z,5.67
2022-10-31T04:51:10.257Z,10.43
2022-10-31T04:53:38.325Z,14.10
2022-10-31T04:56:24.658Z,12.37
2022-10-31T04:58:58.513Z,8.50
2022-10-31T05:01:29.066Z,13.93
2022-10-31T05:03:57.594Z,9.50
2022-10-31T05:06:26.962Z,7.47
2022-10-31T05:08:54.923Z,7.30
2022-10-31T05:11:24.949Z,9.60
2022-10-31T05:13:55.566Z,8.93
2022-10-31T05:16:46.133Z,5.80
2022-10-31T05:19:32.571Z,8.17
2022-10-31T05:22:21.074Z,9.40
2022-10-31T05:24:49.065Z,10.87
2022-10-31T05:27:16.941Z,7.63
2022-10-31T05:29:45.446Z,8.50
2022-10-31T05:32:13.386Z,7.43
2022-10-31T05:35:03.846Z,13.97
2022-10-31T05:37:59.431Z,5.70
2022-10-31T05:40:28.958Z,11.23
2022-10-31T05:42:59.631Z,12.10
2022-10-31T05:45:28.311Z,8.80
2022-10-31T05:48:04.041Z,6.40
2022-10-31T05:50:53.204Z,12.83
2022-10-31T05:53:23.191Z,10.97
2022-10-31T05:55:51.240Z,11.17
2022-10-31T05:58:21.413Z,12.33
2022-10-31T06:01:03.064Z,13.23
2022-10-31T06:03:31.082Z,8.57
2022-10-31T06:06:00.299Z,13.67
2022-10-31T06:08:37.950Z,9.40
2022-10-31T06:11:09.207Z,10.07
2022-10-31T06:13:56.742Z,8.37
2022-10-31T06:16:29.029Z,6.27
2022-10-31T06:18:59.287Z,9.60
2022-10-31T06:21:27.799Z,10.47
2022-10-31T06:23:57.303Z,9.03
2022-10-31T06:27:01.684Z,12.37
2022-10-31T06:29:29.711Z,7.60
2022-10-31T06:32:04.194Z,10.97
2022-10-31T06:34:34.392Z,9.47
2022-10-31T06:37:02.534Z,13.53
2022-10-31T06:39:33.690Z,9.93
2022-10-31T06:42:01.975Z,10.93
2022-10-31T06:44:31.691Z,10.33
2022-10-31T06:47:19.981Z,11.63
2022-10-31T06:50:02.125Z,11.43
2022-10-31T06:52:30.593Z,9.90
2022-10-31T06:54:59.873Z,11.63
2022-10-31T06:57:30.915Z,8.93
2022-10-31T06:59:58.984Z,11.53
2022-10-31T07:02:37.086Z,21.10
2022-10-31T07:05:07.793Z,13.80
2022-10-31T07:07:35.732Z,9.50
2022-10-31T07:10:06.504Z,8.37
2022-10-31T07:13:05.208Z,14.57
2022-10-31T07:15:38.824Z,14.50
2022-10-31T07:18:08.594Z,8.53
2022-10-31T07:20:38.136Z,13.10
2022-10-31T07:23:06.529Z,11.33
2022-10-31T07:25:36.358Z,11.90
2022-10-31T07:28:09.039Z,12.27
2022-10-31T07:30:38.112Z,12.80
2022-10-31T07:33:07.082Z,8.67
2022-10-31T07:35:55.286Z,15.70
2022-10-31T07:38:29.553Z,11.50
2022-10-31T07:40:59.477Z,7.87
2022-10-31T07:43:30.307Z,8.50
2022-10-31T07:46:12.378Z,8.37
2022-10-31T07:48:58.993Z,14.07
2022-10-31T07:51:46.589Z,10.43
2022-10-31T07:54:27.071Z,10.73
2022-10-31T07:56:56.948Z,14.03
2022-10-31T07:59:26.728Z,12.80
2022-10-31T08:01:55.580Z,9.20
2022-10-31T08:04:32.262Z,11.23
2022-10-31T08:07:20.031Z,10.57
2022-10-31T08:09:56.009Z,12.03
2022-10-31T08:12:29.109Z,9.40
2022-10-31T08:14:57.300Z,11.17
2022-10-31T08:17:25.344Z,9.20
2022-10-31T08:19:59.525Z,16.23
2022-10-31T08:22:35.485Z,8.87
2022-10-31T08:25:06.230Z,11.77
2022-10-31T08:27:36.558Z,11.73
2022-10-31T08:30:05.153Z,13.00
2022-10-31T08:32:35.095Z,11.87
2022-10-31T08:35:25.801Z,10.03
2022-10-31T08:38:15.075Z,11.27
2022-10-31T08:40:43.917Z,10.17
2022-10-31T08:43:15.935Z,16.00
2022-10-31T08:45:45.118Z,10.30
2022-10-31T08:48:20.775Z,17.50
2022-10-31T08:50:49.409Z,19.00
2022-10-31T08:53:19.420Z,15.10
2022-10-31T08:55:59.899Z,14.47
2022-10-31T08:58:29.396Z,15.27
2022-10-31T09:01:02.917Z,16.20
2022-10-31T09:03:32.995Z,18.80
2022-10-31T09:06:04.160Z,14.53
2022-10-31T09:08:33.616Z,16.70
2022-10-31T09:11:03.459Z,15.10
2022-10-31T09:13:56.063Z,14.40
2022-10-31T09:16:42.557Z,12.40
2022-10-31T09:19:17.674Z,9.37
2022-10-31T09:21:48.000Z,10.80
2022-10-31T09:24:15.938Z,14.60
2022-10-31T09:26:44.409Z,12.50
2022-10-31T09:29:20.222Z,12.80
2022-10-31T09:31:58.235Z,16.70
2022-10-31T09:34:41.367Z,22.60
2022-10-31T09:37:13.773Z,10.80
2022-10-31T09:39:41.924Z,14.40
2022-10-31T09:42:46.768Z,14.70
2022-10-31T09:45:31.663Z,16.60
2022-10-31T09:48:17.216Z,12.83
2022-10-31T09:51:07.945Z,12.87
2022-10-31T09:54:01.453Z,12.13
2022-10-31T09:56:30.862Z,12.67
2022-10-31T09:59:02.646Z,10.73
2022-10-31T10:01:40.461Z,10.93
2022-10-31T10:04:24.910Z,20.37
2022-10-31T10:07:09.239Z,18.53
2022-10-31T10:09:43.055Z,15.13
2022-10-31T10:12:43.251Z,13.13
2022-10-31T10:15:38.413Z,11.20
2022-10-31T10:18:20.131Z,10.50
2022-10-31T10:21:16.762Z,16.57
2022-10-31T10:23:56.335Z,16.57
2022-10-31T10:29:20.088Z,17.47
2022-10-31T10:31:51.093Z,18.10
2022-10-31T10:34:27.975Z,13.83
2022-10-31T10:37:02.246Z,15.20
2022-10-31T10:39:35.779Z,27.03
2022-10-31T10:42:33.047Z,13.10
2022-10-31T10:45:19.497Z,19.23
2022-10-31T10:47:55.670Z,17.20
2022-10-31T10:50:33.777Z,11.40
2022-10-31T10:53:09.625Z,15.73
2022-10-31T10:55:43.918Z,10.47
2022-10-31T10:58:12.834Z,20.43
2022-10-31T11:00:43.324Z,11.27
2022-10-31T11:03:12.244Z,15.57
2022-10-31T11:05:46.954Z,11.33
2022-10-31T11:08:27.597Z,21.00
2022-10-31T11:11:01.718Z,12.40
2022-10-31T11:13:29.893Z,12.43
2022-10-31T11:16:01.449Z,14.93
2022-10-31T11:18:32.478Z,12.83
2022-10-31T11:21:05.191Z,10.13
2022-10-31T11:23:34.684Z,12.67
2022-10-31T11:26:05.756Z,8.97
2022-10-31T11:28:36.017Z,11.33
2022-10-31T11:31:09.975Z,10.90
2022-10-31T11:33:41.554Z,16.87
2022-10-31T11:36:18.737Z,14.77
2022-10-31T11:38:46.966Z,11.23
2022-10-31T11:41:18.104Z,11.43
2022-10-31T11:43:51.777Z,9.73
2022-10-31T11:46:23.446Z,10.83
2022-10-31T11:48:55.493Z,9.70
2022-10-31T11:51:27.954Z,10.37
2022-10-31T11:54:02.767Z,12.90
2022-10-31T11:56:41.298Z,12.87
2022-10-31T11:59:20.453Z,12.00
2022-10-31T12:01:50.777Z,8.63
2022-10-31T12:04:19.476Z,9.23
2022-10-31T12:06:51.076Z,12.90
2022-10-31T12:09:25.773Z,13.07
2022-10-31T12:12:12.465Z,9.70
2022-10-31T12:14:53.448Z,11.47
2022-10-31T12:17:25.653Z,12.43
2022-10-31T12:20:07.443Z,11.77
2022-10-31T12:22:47.875Z,8.87
2022-10-31T12:25:33.445Z,15.30
2022-10-31T12:28:13.816Z,15.17
2022-10-31T12:30:57.999Z,15.80
2022-10-31T12:33:40.198Z,17.97
2022-10-31T12:36:23.278Z,11.33
2022-10-31T12:39:07.581Z,14.63
2022-10-31T12:41:48.054Z,17.17
2022-10-31T12:44:36.438Z,21.53
2022-10-31T12:47:23.213Z,14.87
2022-10-31T12:50:00.567Z,10.90
2022-10-31T12:52:45.145Z,8.37
2022-10-31T12:55:31.664Z,14.50
2022-10-31T12:58:05.011Z,11.77
2022-10-31T13:00:36.490Z,15.27
2022-10-31T13:03:19.930Z,10.10
2022-10-31T13:05:52.123Z,15.20
2022-10-31T13:08:24.232Z,8.00
2022-10-31T13:13:39.230Z,9.83
2022-10-31T13:16:16.019Z,19.30
2022-10-31T13:18:49.446Z,20.33
2022-10-31T13:21:23.044Z,22.93
2022-10-31T13:23:52.857Z,16.13
2022-10-31T13:26:36.123Z,8.03
2022-10-31T13:29:14.711Z,11.70
2022-10-31T13:31:44.152Z,16.63
2022-10-31T13:34:22.967Z,14.47
2022-10-31T13:37:00.458Z,12.53
2022-10-31T13:39:42.342Z,16.10
2022-10-31T13:42:19.300Z,11.60
2022-10-31T13:44:47.329Z,8.73
2022-10-31T13:47:27.725Z,11.80
2022-10-31T13:50:08.350Z,12.87
2022-10-31T13:52:36.342Z,19.63
2022-10-31T13:55:04.421Z,10.47
2022-10-31T13:57:39.756Z,7.90
2022-10-31T14:00:25.587Z,13.03
2022-10-31T14:02:56.314Z,16.47
2022-10-31T14:05:28.221Z,12.60
2022-10-31T14:07:58.279Z,11.53
2022-10-31T14:10:29.833Z,6.47
2022-10-31T14:13:10.117Z,16.53
2022-10-31T14:15:43.135Z,15.23
2022-10-31T14:18:25.662Z,12.83
2022-10-31T14:20:53.745Z,10.40
2022-10-31T14:23:36.663Z,12.23
2022-10-31T14:26:34.835Z,9.83
2022-10-31T14:29:20.100Z,11.27
2022-10-31T14:31:55.686Z,11.30
2022-10-31T14:34:28.298Z,10.90
2022-10-31T14:37:06.935Z,12.23
2022-10-31T14:39:42.472Z,13.80
2022-10-31T14:42:29.579Z,13.10
2022-10-31T14:45:17.935Z,11.10
2022-10-31T14:47:58.704Z,11.07
2022-10-31T14:50:42.394Z,13.93
2022-10-31T14:53:17.446Z,6.97
2022-10-31T14:55:49.428Z,10.83
2022-10-31T14:58:22.022Z,11.97
2022-10-31T15:00:55.107Z,18.20
2022-10-31T15:03:30.573Z,10.57
2022-10-31T15:06:02.669Z,10.33
2022-10-31T15:08:36.432Z,10.90
2022-10-31T15:11:14.644Z,11.20
2022-10-31T15:13:48.010Z,10.67
2022-10-31T15:16:21.836Z,12.40
2022-10-31T15:18:56.071Z,11.60
2022-10-31T15:21:26.501Z,11.43
2022-10-31T15:23:57.467Z,9.60
2022-10-31T15:26:28.921Z,15.87
2022-10-31T15:29:03.213Z,10.27
2022-10-31T15:31:33.107Z,15.47
2022-10-31T15:34:05.883Z,8.67
2022-10-31T15:36:38.384Z,12.40
2022-10-31T15:39:06.947Z,11.57
2022-10-31T15:41:40.719Z,12.30
2022-10-31T15:44:17.615Z,17.37
2022-10-31T15:46:54.794Z,11.60
2022-10-31T15:49:34.958Z,19.00
2022-10-31T15:52:14.176Z,16.30
2022-10-31T15:54:50.453Z,13.00
2022-10-31T15:57:18.807Z,10.80
2022-10-31T15:59:49.738Z,14.60
2022-10-31T16:02:22.101Z,15.07
2022-10-31T16:04:52.304Z,14.40
2022-10-31T16:07:23.426Z,8.87
2022-10-31T16:09:57.327Z,9.67
2022-10-31T16:12:31.237Z,11.93
2022-10-31T16:14:59.203Z,15.73
2022-10-31T16:17:29.760Z,15.27
2022-10-31T16:20:01.973Z,14.50
2022-10-31T16:22:32.687Z,16.83
2022-10-31T16:25:07.100Z,19.40
2022-10-31T16:27:36.996Z,13.70
2022-10-31T16:30:26.725Z,22.03
2022-10-31T16:32:59.137Z,13.53
2022-10-31T16:35:29.705Z,13.53
2022-10-31T16:37:57.658Z,15.43
2022-10-31T16:40:26.511Z,19.37
2022-10-31T16:42:54.993Z,12.70
2022-10-31T16:45:25.172Z,16.93
2022-10-31T16:47:53.655Z,20.57
2022-10-31T16:50:25.233Z,19.87
2022-10-31T16:53:12.837Z,19.37
2022-10-31T16:55:46.654Z,16.23
2022-10-31T16:58:22.898Z,15.43
2022-10-31T17:00:51.719Z,16.43
2022-10-31T17:03:19.793Z,22.87
2022-10-31T17:05:49.097Z,16.77
2022-10-31T17:08:17.221Z,17.17
2022-10-31T17:10:46.959Z,13.93
2022-10-31T17:13:20.290Z,18.70
2022-10-31T17:15:52.535Z,44.27
2022-10-31T17:18:26.040Z,29.83
2022-10-31T17:21:00.146Z,25.10
2022-10-31T17:23:29.101Z,18.43
2022-10-31T17:25:57.248Z,19.03
2022-10-31T17:28:26.558Z,15.47
2022-10-31T17:30:55.625Z,19.00
2022-10-31T17:33:23.726Z,21.87
2022-10-31T17:35:51.805Z,17.30
2022-10-31T17:38:21.171Z,19.43
2022-10-31T17:40:49.145Z,20.37
2022-10-31T17:43:17.151Z,26.17
2022-10-31T17:45:45.148Z,23.03
2022-10-31T17:48:13.951Z,20.00
2022-10-31T17:50:41.941Z,20.83
2022-10-31T17:53:09.969Z,23.83
2022-10-31T17:55:39.247Z,20.17
2022-10-31T17:58:07.187Z,20.37
2022-10-31T18:00:35.461Z,15.73
2022-10-31T18:03:04.501Z,15.33
2022-10-31T18:05:32.914Z,20.67
2022-10-31T18:08:04.156Z,19.03
2022-10-31T18:10:32.698Z,22.60
2022-10-31T18:13:02.266Z,22.53
2022-10-31T18:15:30.374Z,20.03
2022-10-31T18:17:58.441Z,23.63
2022-10-31T18:20:26.531Z,36.30
2022-10-31T18:22:54.611Z,32.70
2022-10-31T18:25:22.721Z,23.13
2022-10-31T18:27:50.912Z,18.33
2022-10-31T18:30:20.590Z,19.60
2022-10-31T18:32:51.241Z,26.60
2022-10-31T18:35:19.915Z,21.50
2022-10-31T18:37:47.821Z,32.80
2022-10-31T18:40:16.540Z,31.63
2022-10-31T18:42:44.632Z,35.37
2022-10-31T18:45:32.238Z,33.90
2022-10-31T18:48:02.406Z,31.53
2022-10-31T18:50:30.786Z,29.60
2022-10-31T18:52:59.122Z,39.67
2022-10-31T18:55:27.338Z,39.77
2022-10-31T18:57:55.215Z,31.67
2022-10-31T19:00:23.426Z,30.43
2022-10-31T19:02:51.350Z,31.87
2022-10-31T19:05:21.656Z,27.70
2022-10-31T19:07:49.695Z,19.60
2022-10-31T19:10:17.673Z,26.30
2022-10-31T19:12:45.601Z,34.23
2022-10-31T19:15:13.566Z,21.23
2022-10-31T19:17:41.666Z,24.57
2022-10-31T19:20:10.706Z,28.20
2022-10-31T19:22:40.015Z,24.90
2022-10-31T19:25:10.682Z,28.57
2022-10-31T19:27:39.789Z,18.60
2022-10-31T19:30:09.180Z,19.73
2022-10-31T19:32:37.273Z,21.83
2022-10-31T19:35:09.094Z,27.27
2022-10-31T19:37:37.102Z,20.63
2022-10-31T19:40:08.664Z,20.40
2022-10-31T19:42:36.878Z,22.53
2022-10-31T19:45:05.808Z,19.70
2022-10-31T19:47:34.669Z,20.67
2022-10-31T19:50:05.146Z,22.97
2022-10-31T19:52:35.889Z,20.13
2022-10-31T19:55:04.193Z,52.30
2022-10-31T19:58:00.294Z,55.97
2022-10-31T20:00:25.810Z,28.67
2022-10-31T20:02:53.692Z,29.07
2022-10-31T20:05:22.467Z,30.10
2022-10-31T20:07:50.419Z,25.37
2022-10-31T20:10:18.578Z,25.23
2022-10-31T20:12:47.984Z,31.20
2022-10-31T20:15:16.441Z,32.70
2022-10-31T20:17:44.617Z,34.13
2022-10-31T20:20:13.016Z,28.17
2022-10-31T20:22:41.199Z,34.87
2022-10-31T20:25:09.699Z,27.27
2022-10-31T20:27:37.579Z,27.40
2022-10-31T20:30:08.522Z,24.70
2022-10-31T20:32:37.235Z,29.87
2022-10-31T20:35:05.639Z,28.33
2022-10-31T20:37:33.637Z,32.60
2022-10-31T20:40:01.582Z,30.63
2022-10-31T20:42:29.485Z,28.63
2022-10-31T20:44:57.462Z,24.93
2022-10-31T20:47:26.833Z,35.03
2022-10-31T20:49:54.805Z,29.33
2022-10-31T20:52:22.724Z,25.30
2022-10-31T20:54:50.712Z,27.10
2022-10-31T20:57:18.606Z,25.77
2022-10-31T20:59:46.485Z,23.07
2022-10-31T21:02:14.519Z,33.33
2022-10-31T21:04:43.970Z,67.97
2022-10-31T21:07:11.904Z,40.30
2022-10-31T21:09:39.877Z,36.90
2022-10-31T21:12:07.927Z,46.27
2022-10-31T21:14:36.508Z,29.73
2022-10-31T21:17:04.968Z,31.53
2022-10-31T21:19:33.548Z,32.00
2022-10-31T21:22:02.961Z,31.13
2022-10-31T21:24:30.892Z,43.13
2022-10-31T21:26:58.785Z,42.70
2022-10-31T21:29:26.828Z,38.87
2022-10-31T21:31:54.764Z,34.67
2022-10-31T21:34:22.792Z,34.93
2022-10-31T21:36:50.766Z,35.33
2022-10-31T21:39:20.137Z,30.03
2022-10-31T21:41:48.046Z,34.50
2022-10-31T21:44:15.995Z,31.97
2022-10-31T21:46:44.975Z,29.90
2022-10-31T21:49:12.946Z,31.37
2022-10-31T21:51:42.743Z,29.83
2022-10-31T21:54:30.147Z,36.90
2022-10-31T21:57:01.592Z,32.03
2022-10-31T21:59:30.089Z,25.10
2022-10-31T22:02:00.509Z,34.17
2022-10-31T22:04:28.797Z,46.53
2022-10-31T22:06:56.982Z,30.60
2022-10-31T22:09:25.009Z,42.60
2022-10-31T22:11:53.045Z,27.80
2022-10-31T22:14:22.489Z,30.17
2022-10-31T22:16:50.395Z,28.60
2022-10-31T22:19:18.371Z,27.27
2022-10-31T22:21:48.820Z,23.00
2022-10-31T22:24:17.815Z,27.70
2022-10-31T22:26:46.000Z,27.23
2022-10-31T22:29:16.058Z,27.73
2022-10-31T22:31:49.386Z,27.03
2022-10-31T22:34:20.170Z,24.60
2022-10-31T22:36:48.107Z,29.37
2022-10-31T22:39:16.252Z,24.23
2022-10-31T22:41:44.277Z,28.50
2022-10-31T22:44:12.853Z,21.43
2022-10-31T22:46:41.167Z,24.23
2022-10-31T22:49:14.604Z,24.90
2022-10-31T22:51:44.106Z,24.07
2022-10-31T22:54:14.538Z,31.00
2022-10-31T22:56:42.883Z,24.80
2022-10-31T22:59:13.157Z,24.57
2022-10-31T23:01:41.283Z,23.37
2022-10-31T23:06:44.142Z,25.10
2022-10-31T23:09:15.851Z,25.97
2022-10-31T23:11:44.005Z,24.60
2022-10-31T23:14:14.387Z,26.23
2022-10-31T23:16:45.893Z,31.20
2022-10-31T23:19:17.836Z,27.80
2022-10-31T23:21:59.822Z,25.43
2022-10-31T23:24:32.781Z,26.83
2022-10-31T23:27:10.313Z,25.80
2022-10-31T23:29:46.627Z,25.37
2022-10-31T23:32:18.598Z,24.10
2022-10-31T23:34:49.313Z,23.67
2022-10-31T23:37:18.877Z,22.20
2022-10-31T23:39:47.167Z,20.70
2022-10-31T23:42:15.560Z,26.47
2022-10-31T23:44:44.206Z,29.33
2022-10-31T23:47:12.889Z,22.63
2022-10-31T23:49:42.271Z,21.87
2022-10-31T23:52:12.556Z,22.60
2022-10-31T23:54:40.861Z,26.63
2022-10-31T23:57:09.114Z,25.20
2022-10-31T23:59:37.474Z,24.37
